Enshi, China
Current Conditions -  °F | °C
As of 8:00 PM on Friday 28 Nov 2014 (Local Time) from ZUCK Reporting Station
Overcast Overcast  
Wind Chill: 57°   Ceiling: 5000
Heat Index: 57°   Visibility: 4mi
Dew Point: 52°   Wind: 13mph
Humidity: 82%   Direction: 10°N
Pressure: 29.88"   Gusts: NA
Location:  30.28°N, 109.47°E
Report Text: ZUCK 281200Z 01006MPS 6000 FEW026 OVC050 14/11 Q1012 NOSIG
Loading
Personal Weather Stations






























Interactive Weather Map New forecast layout! Learn more

10-Day Weather Forecast

Advertisements
Track Severe Weather on mobile